Latest Weather Observations for Coen Airport

IDQ60801

Issued at 10:02 am EST Saturday 30 May 2015 (issued every 30 minutes, with the page automatically refreshed every 10 minutes)

About weather observations | Map of weather stations | Latest weather observations for QLD | Other Formats
Station Details ID: 027073 Name: COEN AIRPORT Lat: -13.76 Lon: 143.12 Height: 159.3 m
Data from the previous 72 hours. | See also: Recent months at Coen Airport
Date/Time
EST
Temp
°C
App
Temp
°C
Dew
Point
Rel
Hum
%
Delta-T
°C
Wind Press
QNH
hPa
Press
MSL
hPa
Rain
since 9 am
mm
Dir
 
Spd
km/h
Gust
km/h
Spd
kts
Gust
kts
30/10:00am 28.4 28.4 18.2 54 6.5 E 15 28 8 15 1016.3 - 0.0
30/09:30am 27.3 26.5 18.0 56 5.9 ESE 19 32 10 17 1016.4 - 0.0
30/09:00am 27.2 27.5 17.9 56 5.9 ESE 13 20 7 11 1016.4 1015.7 0.0
30/08:30am 26.3 26.4 17.4 58 5.6 E 13 19 7 10 1016.1 - 0.0
30/08:00am 25.2 26.0 17.4 62 4.9 ESE 9 20 5 11 1016.0 - 0.0
30/07:30am 23.9 24.7 18.1 70 3.7 ESE 11 15 6 8 1015.8 - 0.0
30/07:00am 23.6 23.6 18.0 71 3.5 SE 15 20 8 11 1015.5 - 0.0
30/06:30am 22.8 24.3 18.1 75 3.0 SSE 7 13 4 7 1015.4 - 0.0
30/06:00am 23.6 23.4 18.5 73 3.2 ESE 17 20 9 11 1014.9 1014.1 0.0
30/05:30am 23.7 24.0 18.8 74 3.1 ESE 15 24 8 13 1014.5 - 0.0
30/05:00am 22.3 23.0 17.9 76 2.8 SE 11 17 6 9 1014.4 - 0.0
30/04:30am 21.9 23.5 17.9 78 2.5 S 6 11 3 6 1014.3 - 0.0
30/04:00am 22.7 24.1 17.8 74 3.1 SE 7 9 4 5 1014.2 - 0.0
30/03:30am 23.4 23.8 18.1 72 3.3 SE 13 20 7 11 1014.4 - 0.0
30/03:00am 24.0 23.3 18.2 70 3.7 E 19 39 10 21 1014.5 1013.7 0.0
30/02:30am 23.6 24.1 18.3 72 3.4 ESE 13 20 7 11 1014.9 - 0.0
30/02:00am 23.5 23.9 18.2 72 3.3 ESE 13 26 7 14 1015.1 - 0.0
30/01:30am 22.6 24.0 17.9 75 2.9 ESE 7 20 4 11 1015.4 - 0.0
30/01:00am 22.4 23.7 17.5 74 3.0 S 7 13 4 7 1015.7 - 0.0
30/12:30am 23.4 24.0 18.5 74 3.1 SE 13 26 7 14 1015.9 - 0.0
30/12:00am 22.3 23.7 17.9 76 2.8 ESE 7 13 4 7 1016.3 1015.7 0.0
 
Date/Time
EST
Temp
°C
App
Temp
°C
Dew
Point
Rel
Hum
%
Delta-T
°C
Wind Press
QNH
hPa
Press
MSL
hPa
Rain
since 9 am
mm
Dir
 
Spd
km/h
Gust
km/h
Spd
kts
Gust
kts
29/11:30pm 22.6 23.8 18.2 76 2.8 S 9 13 5 7 1016.4 - 0.0
29/11:00pm 23.0 24.7 18.5 76 2.9 S 7 11 4 6 1016.6 - 0.0
29/10:30pm 23.1 23.8 18.8 77 2.7 SSE 13 19 7 10 1016.6 - 0.0
29/10:00pm 23.4 24.6 19.1 77 2.8 SSE 11 13 6 7 1016.6 - 0.0
29/09:30pm 23.3 25.1 19.5 79 2.4 SE 9 15 5 8 1016.7 - 0.0
29/09:00pm 22.9 25.2 19.9 83 1.9 S 7 11 4 6 1016.4 1015.7 0.0
29/08:30pm 23.1 25.6 19.9 82 2.1 SSW 6 7 3 4 1016.1 - 0.0
29/08:00pm 23.5 25.8 19.8 80 2.4 S 7 11 4 6 1015.8 - 0.0
29/07:30pm 23.5 25.8 19.4 78 2.6 E 6 11 3 6 1015.7 - 0.0
29/07:00pm 24.1 26.3 19.6 76 2.9 E 7 13 4 7 1015.6 - 0.0
29/06:30pm 24.4 25.2 19.0 72 3.5 E 13 24 7 13 1015.3 - 0.0
29/06:00pm 24.9 25.8 19.3 71 3.6 E 13 22 7 12 1015.1 1014.3 0.0
29/05:30pm 25.3 25.7 19.0 68 4.1 E 15 24 8 13 1014.8 - 0.0
29/05:00pm 26.2 25.9 19.6 67 4.3 E 20 32 11 17 1014.6 - 0.0
29/04:30pm 27.0 26.8 19.4 63 4.9 E 19 30 10 16 1014.1 - 0.0
29/04:00pm 26.2 26.5 20.5 71 3.8 NE 19 26 10 14 1014.2 - 0.0
29/03:30pm 27.9 27.3 19.7 61 5.4 E 22 33 12 18 1014.0 - 0.0
29/03:00pm 27.4 27.2 19.7 63 5.0 E 20 35 11 19 1014.1 1013.3 0.0
29/02:30pm 28.4 27.7 19.6 59 5.8 ENE 22 33 12 18 1014.2 - 0.0
29/02:00pm 27.0 25.3 19.9 65 4.7 ESE 28 43 15 23 1014.4 - 0.0
29/01:30pm 27.1 27.5 19.9 64 4.7 E 17 39 9 21 1014.6 - 0.0
29/01:00pm 28.0 27.8 19.8 61 5.4 E 20 39 11 21 1014.8 - 0.0
29/12:30pm 27.1 26.9 19.7 64 4.8 ESE 20 33 11 18 1015.2 - 0.0
29/12:00pm 26.8 26.4 19.4 64 4.8 E 20 39 11 21 1015.7 1014.9 0.0
29/11:30am 26.5 26.6 19.9 67 4.3 ESE 19 28 10 15 1016.1 - 0.0
29/11:00am 25.7 25.4 19.6 69 4.0 E 20 43 11 23 1016.5 - 0.0
29/10:30am 26.0 25.5 19.2 66 4.4 ESE 20 32 11 17 1016.8 - 0.0
29/10:00am 25.2 24.2 19.6 71 3.6 SE 24 33 13 18 1016.8 - 0.0
29/09:30am 25.9 27.1 19.8 69 4.0 ESE 13 22 7 12 1016.6 - 0.0
29/09:00am 25.3 24.9 19.4 70 3.8 ESE 20 33 11 18 1016.3 1015.7 0.0
29/08:30am 25.6 26.6 19.5 69 4.0 E 13 22 7 12 1016.1 - 0.0
29/08:00am 24.2 24.8 19.5 75 3.0 ESE 15 24 8 13 1015.7 - 0.0
29/07:30am 23.3 24.6 19.2 78 2.6 ESE 11 20 6 11 1015.5 - 0.0
29/07:00am 23.0 24.6 19.2 79 2.4 E 9 15 5 8 1015.3 - 0.0
29/06:30am 23.0 24.3 19.4 80 2.3 ESE 11 20 6 11 1015.1 - 0.0
29/06:00am 22.6 23.4 19.0 80 2.3 SE 13 17 7 9 1015.0 1014.3 0.0
29/05:30am 22.8 23.6 19.0 79 2.4 SE 13 20 7 11 1015.1 - 0.0
29/05:00am 23.2 23.6 18.9 77 2.7 ESE 15 20 8 11 1015.0 - 0.0
29/04:30am 23.6 23.1 18.7 74 3.1 ESE 19 26 10 14 1014.7 - 0.0
29/04:00am 23.9 23.2 18.3 71 3.5 ESE 19 24 10 13 1014.7 - 0.0
29/03:30am 24.1 23.8 18.3 70 3.7 ESE 17 26 9 14 1014.8 - 0.0
29/03:00am 24.1 24.1 18.1 69 3.8 E 15 33 8 18 1014.9 1014.0 0.0
29/02:30am 24.2 23.5 18.2 69 3.8 ESE 19 30 10 16 1014.8 - 0.0
29/02:00am 24.2 23.6 18.4 70 3.7 ESE 19 33 10 18 1015.0 - 0.0
29/01:30am 24.1 23.2 18.3 70 3.7 ESE 20 30 11 16 1015.3 - 0.0
29/01:00am 23.8 23.4 18.9 74 3.1 ESE 19 30 10 16 1015.7 - 0.0
29/12:30am 24.2 23.7 19.1 73 3.3 ESE 20 32 11 17 1015.8 - 0.0
29/12:00am 23.9 24.3 19.0 74 3.1 SE 15 20 8 11 1015.8 1015.0 0.0
 
Date/Time
EST
Temp
°C
App
Temp
°C
Dew
Point
Rel
Hum
%
Delta-T
°C
Wind Press
QNH
hPa
Press
MSL
hPa
Rain
since 9 am
mm
Dir
 
Spd
km/h
Gust
km/h
Spd
kts
Gust
kts
28/11:30pm 24.6 24.2 19.0 71 3.6 ESE 19 30 10 16 1015.9 - 0.0
28/11:00pm 24.9 24.5 18.8 69 3.9 E 19 32 10 17 1016.0 - 0.0
28/10:30pm 24.8 24.5 19.2 71 3.6 ESE 19 30 10 16 1016.0 - 0.0
28/10:00pm 24.8 24.4 19.4 72 3.5 ESE 20 32 11 17 1016.2 - 0.0
28/09:30pm 25.1 25.6 19.2 70 3.8 ESE 15 33 8 18 1016.1 - 0.0
28/09:00pm 25.2 24.5 19.6 71 3.6 ESE 22 35 12 19 1015.8 1015.0 0.0
28/08:30pm 25.2 24.8 19.3 70 3.8 ESE 20 33 11 18 1015.6 - 0.0
28/08:00pm 25.4 25.3 19.5 70 3.8 ESE 19 26 10 14 1015.4 - 0.0
28/07:30pm 25.4 25.4 19.8 71 3.6 E 19 30 10 16 1015.0 - 0.0
28/07:00pm 25.4 25.3 19.5 70 3.8 E 19 32 10 17 1014.6 - 0.0
28/06:30pm 25.7 25.4 19.6 69 4.0 E 20 32 11 17 1014.6 - 0.0
28/06:00pm 25.8 25.2 19.7 69 4.0 ESE 22 35 12 19 1014.2 1013.4 0.0
28/05:30pm 26.0 26.3 19.6 68 4.2 E 17 26 9 14 1013.8 - 0.0
28/05:00pm 26.7 25.9 19.3 64 4.8 ESE 22 35 12 19 1013.6 - 0.0
28/04:30pm 27.2 26.1 19.5 62 5.0 E 24 44 13 24 1013.4 - 0.0
28/04:00pm 27.7 27.1 19.8 62 5.2 E 22 46 12 25 1013.3 - 0.0
28/03:30pm 27.3 25.9 19.6 62 5.0 E 26 39 14 21 1013.3 - 0.0
28/03:00pm 27.2 26.7 20.0 64 4.7 ESE 22 43 12 23 1013.2 1012.3 0.0
28/02:30pm 27.1 25.8 19.9 64 4.7 ESE 26 43 14 23 1013.2 - 0.0
28/02:00pm 27.7 26.1 20.0 63 5.1 ESE 28 43 15 23 1013.3 - 0.0
28/01:56pm 28.0 26.5 20.3 63 5.1 ESE 28 43 15 23 1013.3 - 0.0
28/01:30pm 27.4 28.5 20.5 66 4.6 SE 15 24 8 13 1013.6 - 0.0
28/01:00pm 28.1 28.5 20.9 65 4.8 SE 20 35 11 19 1013.8 - 0.0
28/12:30pm 27.8 28.7 20.9 66 4.6 SSE 17 30 9 16 1014.2 - 0.0
28/12:00pm 28.9 29.9 21.7 65 4.9 ESE 19 39 10 21 1014.6 1013.8 0.0
28/11:30am 26.1 26.4 20.4 71 3.8 SSE 19 28 10 15 1014.9 - 0.0
28/11:00am 25.2 26.0 20.7 76 3.0 S 17 24 9 13 1015.3 - 0.0
28/10:30am 24.7 25.1 20.6 78 2.7 S 19 28 10 15 1015.4 - 0.0
28/10:00am 24.2 25.4 20.7 81 2.3 S 15 20 8 11 1015.7 - 0.0
28/09:30am 23.8 24.9 20.5 82 2.2 S 15 20 8 11 1015.9 - 0.0
28/09:00am 23.2 23.8 20.3 84 1.9 SSE 17 22 9 12 1015.9 1015.1 0.0
28/08:30am 22.8 23.4 20.3 86 1.6 SSE 17 24 9 13 1015.6 - 0.0
28/08:00am 22.3 23.4 20.4 89 1.2 SSE 15 19 8 10 1015.3 - 0.0
28/07:30am 21.7 22.7 20.2 91 1.0 SSE 15 19 8 10 1014.8 - 0.0
28/07:00am 21.3 22.1 19.8 91 1.0 SSE 15 20 8 11 1014.6 - 0.0
28/06:30am 21.2 21.9 19.7 91 1.0 SSE 15 19 8 10 1014.4 - 0.0
28/06:00am 21.5 22.7 19.8 90 1.1 SSE 13 19 7 10 1014.2 1013.4 0.0
28/05:30am 21.2 22.6 19.5 90 1.1 S 11 15 6 8 1013.8 - 0.0
28/05:00am 21.2 22.1 19.3 89 1.2 SSE 13 19 7 10 1013.7 - 0.0
28/04:30am 21.3 22.3 19.4 89 1.2 SSE 13 17 7 9 1013.7 - 0.0
28/04:00am 21.4 23.0 19.1 87 1.5 SSE 9 13 5 7 1013.5 - 0.0
28/03:30am 21.6 22.9 19.2 86 1.5 SSE 11 13 6 7 1013.4 - 0.0
28/03:00am 21.8 22.6 19.0 84 1.8 SE 13 17 7 9 1013.5 1012.7 0.0
28/02:30am 22.1 22.8 18.9 82 2.0 SE 13 22 7 12 1013.7 - 0.0
28/02:00am 22.8 23.6 19.0 79 2.4 ESE 13 19 7 10 1013.7 - 0.0
28/01:30am 22.9 24.4 18.9 78 2.5 ESE 9 13 5 7 1014.0 - 0.0
28/01:00am 23.6 24.4 19.1 76 2.9 ESE 13 22 7 12 1014.2 - 0.0
28/12:30am 23.5 24.8 19.2 77 2.8 ESE 11 15 6 8 1014.4 - 0.0
28/12:00am 23.5 24.4 19.2 77 2.8 ESE 13 15 7 8 1014.5 1013.7 0.0
 
Date/Time
EST
Temp
°C
App
Temp
°C
Dew
Point
Rel
Hum
%
Delta-T
°C
Wind Press
QNH
hPa
Press
MSL
hPa
Rain
since 9 am
mm
Dir
 
Spd
km/h
Gust
km/h
Spd
kts
Gust
kts
27/11:30pm 23.8 25.6 19.5 77 2.8 ESE 9 15 5 8 1015.0 - 0.0
27/11:00pm 23.4 25.7 19.8 80 2.3 SE 7 11 4 6 1015.1 - 0.0
27/10:30pm 23.7 25.2 19.8 79 2.5 SE 11 15 6 8 1015.5 - 0.0
27/10:00pm 24.6 25.0 19.9 75 3.1 ESE 17 28 9 15 1015.6 - 0.0
27/09:30pm 25.1 25.0 19.9 73 3.4 ESE 20 30 11 16 1015.5 - 0.0
27/09:00pm 25.0 25.5 20.0 74 3.3 ESE 17 26 9 14 1015.2 1014.4 0.0
27/08:30pm 25.7 26.1 19.8 70 3.8 ESE 17 26 9 14 1015.0 - 0.0
27/08:00pm 25.2 26.8 20.0 73 3.4 ESE 11 19 6 10 1014.6 - 0.0
27/07:30pm 25.0 25.9 20.0 74 3.3 E 15 26 8 14 1014.1 - 0.0
27/07:00pm 24.4 26.3 19.7 75 3.0 NE 9 15 5 8 1014.0 - 0.0
27/06:30pm 25.1 26.4 19.2 70 3.8 ENE 11 20 6 11 1013.7 - 0.0
27/06:00pm 25.9 27.5 19.1 66 4.4 E 9 15 5 8 1013.6 1012.8 0.0
27/05:30pm 26.6 28.1 19.0 63 4.9 E 9 15 5 8 1013.3 - 0.0
27/05:00pm 27.7 29.0 19.2 60 5.5 ESE 11 19 6 10 1013.0 - 0.0
27/04:30pm 27.9 29.4 18.9 58 5.8 ESE 9 15 5 8 1013.1 - 0.0
27/04:00pm 28.7 29.5 19.1 56 6.2 E 13 20 7 11 1012.9 - 0.0
27/03:30pm 29.1 29.4 18.8 53 6.7 ESE 15 24 8 13 1013.2 - 0.0
27/03:00pm 28.5 28.9 19.1 56 6.1 ESE 15 22 8 12 1013.4 1012.6 0.0
27/02:30pm 28.9 29.2 18.7 54 6.6 E 15 22 8 12 1013.5 - 0.0
27/02:00pm 29.0 28.9 18.7 53 6.7 E 17 26 9 14 1013.8 - 0.0
27/01:30pm 29.8 29.0 19.2 53 6.9 SE 22 30 12 16 1014.2 - 0.0
27/01:00pm 30.1 29.7 18.8 50 7.4 ENE 19 30 10 16 1014.4 - 0.0
27/12:30pm 29.3 28.5 18.4 51 7.0 SSE 20 26 11 14 1015.0 - 0.0
27/12:00pm 28.7 27.7 17.9 52 6.9 E 20 33 11 18 1015.4 1014.7 0.0
27/11:30am 29.3 29.1 18.4 51 7.0 E 17 30 9 16 1015.9 - 0.0
27/11:00am 27.7 26.6 17.8 54 6.3 ENE 20 33 11 18 1016.4 - 0.0
27/10:30am 28.1 27.3 17.0 51 7.0 ESE 17 30 9 16 1016.7 - 0.0

Other Formats:

Comma delimited format used in spreadsheet applications
http://www.bom.gov.au/fwo/IDQ60801/IDQ60801.94183.axf

JavaScript Object Notation format (JSON) in row-major order
http://www.bom.gov.au/fwo/IDQ60801/IDQ60801.94183.json